Terminal Aerodrome Forecast
Issued by NWS Sterling, VA

Home | Current Version | Previous Version | Text Only | Print | Product List | Glossary On
Versions: 1 2 3 4 5 6 7 8 9 10 11 12 13 14 15 16 17 18 19 20 21 22 23 24 25 26
039
FTUS41 KLWX 250534
TAFBWI
TAF
KBWI 250534Z 2506/2612 28005KT P6SM SKC
     FM251500 28006KT P6SM FEW050
     FM252300 22005KT P6SM FEW130
     FM260800 00000KT P6SM FEW130=

USA.gov is the U.S. government's official web portal to all federal, state and local government web resources and services.